sensor_id;sensor_type;location;lat;lon;timestamp;temperature;humidity
14349;DHT22;7258;50.376;8.742;2023-02-11T00:01:41;0.70;99.90
14349;DHT22;7258;50.376;8.742;2023-02-11T00:03:44;0.70;99.90
14349;DHT22;7258;50.376;8.742;2023-02-11T00:05:56;0.80;99.90
14349;DHT22;7258;50.376;8.742;2023-02-11T00:07:59;0.80;99.90
14349;DHT22;7258;50.376;8.742;2023-02-11T00:10:02;0.80;99.90
14349;DHT22;7258;50.376;8.742;2023-02-11T00:12:07;0.80;99.90
14349;DHT22;7258;50.376;8.742;2023-02-11T00:14:10;0.90;99.90
14349;DHT22;7258;50.376;8.742;2023-02-11T00:16:15;0.90;99.90
14349;DHT22;7258;50.376;8.742;2023-02-11T00:18:21;0.90;99.90
14349;DHT22;7258;50.376;8.742;2023-02-11T00:20:24;1.00;99.90
14349;DHT22;7258;50.376;8.742;2023-02-11T00:22:27;1.00;99.90
14349;DHT22;7258;50.376;8.742;2023-02-11T00:24:30;1.00;99.90
14349;DHT22;7258;50.376;8.742;2023-02-11T00:26:34;1.00;99.90
14349;DHT22;7258;50.376;8.742;2023-02-11T00:28:37;1.00;99.90
14349;DHT22;7258;50.376;8.742;2023-02-11T00:30:40;1.00;99.90
14349;DHT22;7258;50.376;8.742;2023-02-11T00:32:43;1.00;99.90
14349;DHT22;7258;50.376;8.742;2023-02-11T00:34:50;1.00;99.90
14349;DHT22;7258;50.376;8.742;2023-02-11T00:36:53;1.10;99.90
14349;DHT22;7258;50.376;8.742;2023-02-11T00:38:59;1.10;99.90
14349;DHT22;7258;50.376;8.742;2023-02-11T00:41:02;1.10;99.90
14349;DHT22;7258;50.376;8.742;2023-02-11T00:43:05;1.10;99.90
14349;DHT22;7258;50.376;8.742;2023-02-11T00:45:08;1.10;99.90
14349;DHT22;7258;50.376;8.742;2023-02-11T00:47:11;1.10;99.90
14349;DHT22;7258;50.376;8.742;2023-02-11T00:49:14;1.10;99.90
14349;DHT22;7258;50.376;8.742;2023-02-11T00:51:19;1.10;99.90
14349;DHT22;7258;50.376;8.742;2023-02-11T00:53:22;1.10;99.90
14349;DHT22;7258;50.376;8.742;2023-02-11T00:55:25;1.20;99.90
14349;DHT22;7258;50.376;8.742;2023-02-11T00:57:29;1.20;99.90
14349;DHT22;7258;50.376;8.742;2023-02-11T00:59:32;1.20;99.90
14349;DHT22;7258;50.376;8.742;2023-02-11T01:01:35;1.20;99.90
14349;DHT22;7258;50.376;8.742;2023-02-11T01:03:39;1.20;99.90
14349;DHT22;7258;50.376;8.742;2023-02-11T01:05:42;1.20;99.90
14349;DHT22;7258;50.376;8.742;2023-02-11T01:07:46;1.20;99.90
14349;DHT22;7258;50.376;8.742;2023-02-11T01:09:49;1.20;99.90
14349;DHT22;7258;50.376;8.742;2023-02-11T01:11:52;1.20;99.90
14349;DHT22;7258;50.376;8.742;2023-02-11T01:13:55;1.20;99.90
14349;DHT22;7258;50.376;8.742;2023-02-11T01:15:58;1.20;99.90
14349;DHT22;7258;50.376;8.742;2023-02-11T01:18:03;1.20;99.90
14349;DHT22;7258;50.376;8.742;2023-02-11T01:20:11;1.20;99.90
14349;DHT22;7258;50.376;8.742;2023-02-11T01:22:15;1.30;99.90
14349;DHT22;7258;50.376;8.742;2023-02-11T01:24:19;1.30;99.90
14349;DHT22;7258;50.376;8.742;2023-02-11T01:26:22;1.30;99.90
14349;DHT22;7258;50.376;8.742;2023-02-11T01:28:28;1.30;99.90
14349;DHT22;7258;50.376;8.742;2023-02-11T01:30:33;1.30;99.90
14349;DHT22;7258;50.376;8.742;2023-02-11T01:32:37;1.40;99.90
14349;DHT22;7258;50.376;8.742;2023-02-11T01:34:40;1.40;99.90
14349;DHT22;7258;50.376;8.742;2023-02-11T01:36:44;1.40;99.90
14349;DHT22;7258;50.376;8.742;2023-02-11T01:38:48;1.40;99.90
14349;DHT22;7258;50.376;8.742;2023-02-11T01:40:54;1.50;99.90
14349;DHT22;7258;50.376;8.742;2023-02-11T01:42:58;1.50;99.90
14349;DHT22;7258;50.376;8.742;2023-02-11T01:45:41;1.50;99.90
14349;DHT22;7258;50.376;8.742;2023-02-11T01:47:45;1.50;99.90
14349;DHT22;7258;50.376;8.742;2023-02-11T01:49:52;1.50;99.90
14349;DHT22;7258;50.376;8.742;2023-02-11T01:52:00;1.50;99.90
14349;DHT22;7258;50.376;8.742;2023-02-11T01:54:05;1.50;99.90
14349;DHT22;7258;50.376;8.742;2023-02-11T01:56:28;1.50;99.90
14349;DHT22;7258;50.376;8.742;2023-02-11T01:58:50;1.50;99.90
14349;DHT22;7258;50.376;8.742;2023-02-11T02:00:55;1.50;99.90
14349;DHT22;7258;50.376;8.742;2023-02-11T02:03:03;1.50;99.90
14349;DHT22;7258;50.376;8.742;2023-02-11T02:05:12;1.50;99.90
14349;DHT22;7258;50.376;8.742;2023-02-11T02:07:21;1.50;99.90
14349;DHT22;7258;50.376;8.742;2023-02-11T02:09:28;1.50;99.90
14349;DHT22;7258;50.376;8.742;2023-02-11T02:11:37;1.50;99.90
14349;DHT22;7258;50.376;8.742;2023-02-11T02:13:40;1.50;99.90
14349;DHT22;7258;50.376;8.742;2023-02-11T02:15:47;1.50;99.90
14349;DHT22;7258;50.376;8.742;2023-02-11T02:17:59;1.50;99.90
14349;DHT22;7258;50.376;8.742;2023-02-11T02:20:38;1.50;99.90
14349;DHT22;7258;50.376;8.742;2023-02-11T02:23:18;1.50;99.90
14349;DHT22;7258;50.376;8.742;2023-02-11T02:25:50;1.40;99.90
14349;DHT22;7258;50.376;8.742;2023-02-11T02:28:15;1.40;99.90
14349;DHT22;7258;50.376;8.742;2023-02-11T02:33:27;1.40;99.90
14349;DHT22;7258;50.376;8.742;2023-02-11T02:35:37;1.40;99.90
14349;DHT22;7258;50.376;8.742;2023-02-11T02:37:46;1.40;99.90
14349;DHT22;7258;50.376;8.742;2023-02-11T02:39:55;1.40;99.90
14349;DHT22;7258;50.376;8.742;2023-02-11T02:41:59;1.40;99.90
14349;DHT22;7258;50.376;8.742;2023-02-11T02:44:02;1.40;99.90
14349;DHT22;7258;50.376;8.742;2023-02-11T02:46:13;1.40;99.90
14349;DHT22;7258;50.376;8.742;2023-02-11T02:48:26;1.40;99.90
14349;DHT22;7258;50.376;8.742;2023-02-11T02:50:33;1.40;99.90
14349;DHT22;7258;50.376;8.742;2023-02-11T02:52:44;1.40;99.90
14349;DHT22;7258;50.376;8.742;2023-02-11T02:55:04;1.40;99.90
14349;DHT22;7258;50.376;8.742;2023-02-11T02:57:18;1.40;99.90
14349;DHT22;7258;50.376;8.742;2023-02-11T02:59:35;1.30;99.90
14349;DHT22;7258;50.376;8.742;2023-02-11T03:01:49;1.30;99.90
14349;DHT22;7258;50.376;8.742;2023-02-11T03:04:00;1.30;99.90
14349;DHT22;7258;50.376;8.742;2023-02-11T03:06:09;1.30;99.90
14349;DHT22;7258;50.376;8.742;2023-02-11T03:08:16;1.30;99.90
14349;DHT22;7258;50.376;8.742;2023-02-11T03:10:23;1.30;99.90
14349;DHT22;7258;50.376;8.742;2023-02-11T03:12:30;1.30;99.90
14349;DHT22;7258;50.376;8.742;2023-02-11T03:14:34;1.30;99.90
14349;DHT22;7258;50.376;8.742;2023-02-11T03:16:38;1.30;99.90
14349;DHT22;7258;50.376;8.742;2023-02-11T03:18:45;1.30;99.90
14349;DHT22;7258;50.376;8.742;2023-02-11T03:20:52;1.30;99.90
14349;DHT22;7258;50.376;8.742;2023-02-11T03:22:59;1.20;99.90
14349;DHT22;7258;50.376;8.742;2023-02-11T03:25:04;1.20;99.90
14349;DHT22;7258;50.376;8.742;2023-02-11T03:27:11;1.20;99.90
14349;DHT22;7258;50.376;8.742;2023-02-11T03:29:24;1.20;99.90
14349;DHT22;7258;50.376;8.742;2023-02-11T03:31:34;1.20;99.90
14349;DHT22;7258;50.376;8.742;2023-02-11T03:33:41;1.20;99.90
14349;DHT22;7258;50.376;8.742;2023-02-11T03:35:53;1.20;99.90
14349;DHT22;7258;50.376;8.742;2023-02-11T03:38:00;1.20;99.90
14349;DHT22;7258;50.376;8.742;2023-02-11T03:40:08;1.20;99.90
14349;DHT22;7258;50.376;8.742;2023-02-11T03:42:13;1.10;99.90
14349;DHT22;7258;50.376;8.742;2023-02-11T03:44:19;1.10;99.90
14349;DHT22;7258;50.376;8.742;2023-02-11T03:46:26;1.10;99.90
14349;DHT22;7258;50.376;8.742;2023-02-11T03:48:32;1.10;99.90
14349;DHT22;7258;50.376;8.742;2023-02-11T03:50:37;1.10;99.90
14349;DHT22;7258;50.376;8.742;2023-02-11T03:52:44;1.10;99.90
14349;DHT22;7258;50.376;8.742;2023-02-11T03:54:52;1.20;99.90
14349;DHT22;7258;50.376;8.742;2023-02-11T03:56:59;1.20;99.90
14349;DHT22;7258;50.376;8.742;2023-02-11T03:59:03;1.20;99.90
14349;DHT22;7258;50.376;8.742;2023-02-11T04:01:06;1.20;99.90
14349;DHT22;7258;50.376;8.742;2023-02-11T04:03:11;1.20;99.90
14349;DHT22;7258;50.376;8.742;2023-02-11T04:05:15;1.20;99.90
14349;DHT22;7258;50.376;8.742;2023-02-11T04:07:18;1.30;99.90
14349;DHT22;7258;50.376;8.742;2023-02-11T04:09:22;1.30;99.90
14349;DHT22;7258;50.376;8.742;2023-02-11T04:11:25;1.30;99.90
14349;DHT22;7258;50.376;8.742;2023-02-11T04:13:28;1.30;99.90
14349;DHT22;7258;50.376;8.742;2023-02-11T04:15:32;1.30;99.90
14349;DHT22;7258;50.376;8.742;2023-02-11T04:17:35;1.40;99.90
14349;DHT22;7258;50.376;8.742;2023-02-11T04:19:38;1.40;99.90
14349;DHT22;7258;50.376;8.742;2023-02-11T04:21:41;1.40;99.90
14349;DHT22;7258;50.376;8.742;2023-02-11T04:23:44;1.40;99.90
14349;DHT22;7258;50.376;8.742;2023-02-11T04:25:49;1.40;99.90
14349;DHT22;7258;50.376;8.742;2023-02-11T04:27:53;1.40;99.90
14349;DHT22;7258;50.376;8.742;2023-02-11T04:29:57;1.40;99.90
14349;DHT22;7258;50.376;8.742;2023-02-11T04:32:00;1.30;99.90
14349;DHT22;7258;50.376;8.742;2023-02-11T04:34:03;1.30;99.90
14349;DHT22;7258;50.376;8.742;2023-02-11T04:36:07;1.30;99.90
14349;DHT22;7258;50.376;8.742;2023-02-11T04:38:11;1.30;99.90
14349;DHT22;7258;50.376;8.742;2023-02-11T04:40:14;1.30;99.90
14349;DHT22;7258;50.376;8.742;2023-02-11T04:42:19;1.30;99.90
14349;DHT22;7258;50.376;8.742;2023-02-11T04:44:22;1.30;99.90
14349;DHT22;7258;50.376;8.742;2023-02-11T04:46:25;1.30;99.90
14349;DHT22;7258;50.376;8.742;2023-02-11T04:48:28;1.40;99.90
14349;DHT22;7258;50.376;8.742;2023-02-11T04:50:31;1.40;99.90
14349;DHT22;7258;50.376;8.742;2023-02-11T04:52:34;1.40;99.90
14349;DHT22;7258;50.376;8.742;2023-02-11T04:54:37;1.50;99.90
14349;DHT22;7258;50.376;8.742;2023-02-11T04:56:40;1.50;99.90
14349;DHT22;7258;50.376;8.742;2023-02-11T04:58:44;1.50;99.90
14349;DHT22;7258;50.376;8.742;2023-02-11T05:00:47;1.50;99.90
14349;DHT22;7258;50.376;8.742;2023-02-11T05:02:51;1.50;99.90
14349;DHT22;7258;50.376;8.742;2023-02-11T05:04:54;1.50;99.90
14349;DHT22;7258;50.376;8.742;2023-02-11T05:06:57;1.50;99.90
14349;DHT22;7258;50.376;8.742;2023-02-11T05:09:00;1.40;99.90
14349;DHT22;7258;50.376;8.742;2023-02-11T05:11:03;1.40;99.90
14349;DHT22;7258;50.376;8.742;2023-02-11T05:13:06;1.40;99.90
14349;DHT22;7258;50.376;8.742;2023-02-11T05:15:10;1.40;99.90
14349;DHT22;7258;50.376;8.742;2023-02-11T05:17:13;1.40;99.90
14349;DHT22;7258;50.376;8.742;2023-02-11T05:19:16;1.40;99.90
14349;DHT22;7258;50.376;8.742;2023-02-11T05:21:20;1.40;99.90
14349;DHT22;7258;50.376;8.742;2023-02-11T05:23:23;1.30;99.90
14349;DHT22;7258;50.376;8.742;2023-02-11T05:25:26;1.30;99.90
14349;DHT22;7258;50.376;8.742;2023-02-11T05:27:29;1.30;99.90
14349;DHT22;7258;50.376;8.742;2023-02-11T05:29:31;1.30;99.90
14349;DHT22;7258;50.376;8.742;2023-02-11T05:31:36;1.20;99.90
14349;DHT22;7258;50.376;8.742;2023-02-11T05:33:39;1.20;99.90
14349;DHT22;7258;50.376;8.742;2023-02-11T05:35:42;1.20;99.90
14349;DHT22;7258;50.376;8.742;2023-02-11T05:37:45;1.20;99.90
14349;DHT22;7258;50.376;8.742;2023-02-11T05:39:48;1.20;99.90
14349;DHT22;7258;50.376;8.742;2023-02-11T05:41:51;1.20;99.90
14349;DHT22;7258;50.376;8.742;2023-02-11T05:43:54;1.20;99.90
14349;DHT22;7258;50.376;8.742;2023-02-11T05:45:57;1.10;99.90
14349;DHT22;7258;50.376;8.742;2023-02-11T05:48:01;1.10;99.90
14349;DHT22;7258;50.376;8.742;2023-02-11T05:50:05;1.10;99.90
14349;DHT22;7258;50.376;8.742;2023-02-11T05:52:08;1.10;99.90
14349;DHT22;7258;50.376;8.742;2023-02-11T05:54:11;1.00;99.90
14349;DHT22;7258;50.376;8.742;2023-02-11T05:56:14;1.00;99.90
14349;DHT22;7258;50.376;8.742;2023-02-11T05:58:17;1.00;99.90
14349;DHT22;7258;50.376;8.742;2023-02-11T06:00:20;1.00;99.90
14349;DHT22;7258;50.376;8.742;2023-02-11T06:02:25;1.00;99.90
14349;DHT22;7258;50.376;8.742;2023-02-11T06:04:30;1.00;99.90
14349;DHT22;7258;50.376;8.742;2023-02-11T06:06:33;1.00;99.90
14349;DHT22;7258;50.376;8.742;2023-02-11T06:08:36;1.00;99.90
14349;DHT22;7258;50.376;8.742;2023-02-11T06:10:40;1.00;99.90
14349;DHT22;7258;50.376;8.742;2023-02-11T06:12:43;1.00;99.90
14349;DHT22;7258;50.376;8.742;2023-02-11T06:14:46;1.10;99.90
14349;DHT22;7258;50.376;8.742;2023-02-11T06:16:49;1.10;99.90
14349;DHT22;7258;50.376;8.742;2023-02-11T06:18:52;1.10;99.90
14349;DHT22;7258;50.376;8.742;2023-02-11T06:20:57;1.10;99.90
14349;DHT22;7258;50.376;8.742;2023-02-11T06:23:00;1.10;99.90
14349;DHT22;7258;50.376;8.742;2023-02-11T06:25:03;1.10;99.90
14349;DHT22;7258;50.376;8.742;2023-02-11T06:27:06;1.10;99.90
14349;DHT22;7258;50.376;8.742;2023-02-11T06:29:09;1.10;99.90
14349;DHT22;7258;50.376;8.742;2023-02-11T06:31:13;1.10;99.90
14349;DHT22;7258;50.376;8.742;2023-02-11T06:33:17;1.10;99.90
14349;DHT22;7258;50.376;8.742;2023-02-11T06:35:20;1.10;99.90
14349;DHT22;7258;50.376;8.742;2023-02-11T06:37:25;1.10;99.90
14349;DHT22;7258;50.376;8.742;2023-02-11T06:39:28;1.10;99.90
14349;DHT22;7258;50.376;8.742;2023-02-11T06:41:31;1.00;99.90
14349;DHT22;7258;50.376;8.742;2023-02-11T06:43:34;1.10;99.90
14349;DHT22;7258;50.376;8.742;2023-02-11T06:45:37;1.10;99.90
14349;DHT22;7258;50.376;8.742;2023-02-11T06:47:40;1.10;99.90
14349;DHT22;7258;50.376;8.742;2023-02-11T06:49:44;1.10;99.90
14349;DHT22;7258;50.376;8.742;2023-02-11T06:51:47;1.00;99.90
14349;DHT22;7258;50.376;8.742;2023-02-11T06:53:51;1.00;99.90
14349;DHT22;7258;50.376;8.742;2023-02-11T06:55:55;1.00;99.90
14349;DHT22;7258;50.376;8.742;2023-02-11T06:57:58;1.00;99.90
14349;DHT22;7258;50.376;8.742;2023-02-11T07:00:01;1.10;99.90
14349;DHT22;7258;50.376;8.742;2023-02-11T07:02:05;1.10;99.90
14349;DHT22;7258;50.376;8.742;2023-02-11T07:04:08;1.10;99.90
14349;DHT22;7258;50.376;8.742;2023-02-11T07:06:12;1.20;99.90
14349;DHT22;7258;50.376;8.742;2023-02-11T07:08:16;1.20;99.90
14349;DHT22;7258;50.376;8.742;2023-02-11T07:10:20;1.30;99.90
14349;DHT22;7258;50.376;8.742;2023-02-11T07:12:23;1.30;99.90
14349;DHT22;7258;50.376;8.742;2023-02-11T07:14:26;1.30;99.90
14349;DHT22;7258;50.376;8.742;2023-02-11T07:16:29;1.30;99.90
14349;DHT22;7258;50.376;8.742;2023-02-11T07:18:32;1.30;99.90
14349;DHT22;7258;50.376;8.742;2023-02-11T07:20:36;1.40;99.90
14349;DHT22;7258;50.376;8.742;2023-02-11T07:22:39;1.40;99.90
14349;DHT22;7258;50.376;8.742;2023-02-11T07:24:42;1.40;99.90
14349;DHT22;7258;50.376;8.742;2023-02-11T07:26:46;1.40;99.90
14349;DHT22;7258;50.376;8.742;2023-02-11T07:28:49;1.40;99.90
14349;DHT22;7258;50.376;8.742;2023-02-11T07:30:56;1.50;99.90
14349;DHT22;7258;50.376;8.742;2023-02-11T07:32:59;1.50;99.90
14349;DHT22;7258;50.376;8.742;2023-02-11T07:35:02;1.60;99.90
14349;DHT22;7258;50.376;8.742;2023-02-11T07:37:05;1.60;99.90
14349;DHT22;7258;50.376;8.742;2023-02-11T07:39:10;1.70;99.90
14349;DHT22;7258;50.376;8.742;2023-02-11T07:41:16;1.70;99.90
14349;DHT22;7258;50.376;8.742;2023-02-11T07:43:21;1.80;99.90
14349;DHT22;7258;50.376;8.742;2023-02-11T07:45:24;1.80;99.90
14349;DHT22;7258;50.376;8.742;2023-02-11T07:47:28;1.90;99.90
14349;DHT22;7258;50.376;8.742;2023-02-11T07:49:30;1.90;99.90
14349;DHT22;7258;50.376;8.742;2023-02-11T07:51:33;2.00;99.90
14349;DHT22;7258;50.376;8.742;2023-02-11T07:53:36;2.00;99.90
14349;DHT22;7258;50.376;8.742;2023-02-11T07:55:41;2.10;99.90
14349;DHT22;7258;50.376;8.742;2023-02-11T07:57:45;2.10;99.90
14349;DHT22;7258;50.376;8.742;2023-02-11T07:59:49;2.10;99.90
14349;DHT22;7258;50.376;8.742;2023-02-11T08:01:52;2.20;99.90
14349;DHT22;7258;50.376;8.742;2023-02-11T08:03:57;2.20;99.90
14349;DHT22;7258;50.376;8.742;2023-02-11T08:06:02;2.30;99.90
14349;DHT22;7258;50.376;8.742;2023-02-11T08:08:05;2.40;99.90
14349;DHT22;7258;50.376;8.742;2023-02-11T08:10:10;2.50;99.90
14349;DHT22;7258;50.376;8.742;2023-02-11T08:12:13;2.60;99.90
14349;DHT22;7258;50.376;8.742;2023-02-11T08:14:16;2.70;99.90
14349;DHT22;7258;50.376;8.742;2023-02-11T08:16:22;2.70;99.90
14349;DHT22;7258;50.376;8.742;2023-02-11T08:18:25;2.70;99.90
14349;DHT22;7258;50.376;8.742;2023-02-11T08:20:28;2.70;99.90
14349;DHT22;7258;50.376;8.742;2023-02-11T08:22:32;2.80;99.90
14349;DHT22;7258;50.376;8.742;2023-02-11T08:24:35;2.80;99.90
14349;DHT22;7258;50.376;8.742;2023-02-11T08:26:38;2.80;99.90
14349;DHT22;7258;50.376;8.742;2023-02-11T08:28:43;2.70;99.90
14349;DHT22;7258;50.376;8.742;2023-02-11T08:30:47;2.80;99.90
14349;DHT22;7258;50.376;8.742;2023-02-11T08:32:54;2.70;99.90
14349;DHT22;7258;50.376;8.742;2023-02-11T08:34:57;2.70;99.90
14349;DHT22;7258;50.376;8.742;2023-02-11T08:37:00;2.70;99.90
14349;DHT22;7258;50.376;8.742;2023-02-11T08:39:05;2.70;99.90
14349;DHT22;7258;50.376;8.742;2023-02-11T08:41:20;2.70;99.90
14349;DHT22;7258;50.376;8.742;2023-02-11T08:43:23;2.80;99.90
14349;DHT22;7258;50.376;8.742;2023-02-11T08:45:26;2.80;99.90
14349;DHT22;7258;50.376;8.742;2023-02-11T08:47:29;2.90;99.90
14349;DHT22;7258;50.376;8.742;2023-02-11T08:49:34;3.00;99.90
14349;DHT22;7258;50.376;8.742;2023-02-11T08:51:38;3.00;99.90
14349;DHT22;7258;50.376;8.742;2023-02-11T08:53:41;3.10;99.90
14349;DHT22;7258;50.376;8.742;2023-02-11T08:55:50;3.10;99.90
14349;DHT22;7258;50.376;8.742;2023-02-11T08:57:54;3.10;99.90
14349;DHT22;7258;50.376;8.742;2023-02-11T08:59:57;3.10;99.90
14349;DHT22;7258;50.376;8.742;2023-02-11T09:02:01;3.20;99.90
14349;DHT22;7258;50.376;8.742;2023-02-11T09:04:08;3.20;99.90
14349;DHT22;7258;50.376;8.742;2023-02-11T09:06:13;3.20;99.90
14349;DHT22;7258;50.376;8.742;2023-02-11T09:08:19;3.10;99.90
14349;DHT22;7258;50.376;8.742;2023-02-11T09:10:25;3.10;99.90
14349;DHT22;7258;50.376;8.742;2023-02-11T09:12:28;3.10;99.90
14349;DHT22;7258;50.376;8.742;2023-02-11T09:14:31;3.20;99.90
14349;DHT22;7258;50.376;8.742;2023-02-11T09:16:35;3.20;99.90
14349;DHT22;7258;50.376;8.742;2023-02-11T09:18:38;3.30;99.90
14349;DHT22;7258;50.376;8.742;2023-02-11T09:20:41;3.30;99.90
14349;DHT22;7258;50.376;8.742;2023-02-11T09:22:47;3.30;99.90
14349;DHT22;7258;50.376;8.742;2023-02-11T09:24:49;3.40;99.90
14349;DHT22;7258;50.376;8.742;2023-02-11T09:26:52;3.40;99.90
14349;DHT22;7258;50.376;8.742;2023-02-11T09:28:56;3.40;99.90
14349;DHT22;7258;50.376;8.742;2023-02-11T09:31:04;3.40;99.90
14349;DHT22;7258;50.376;8.742;2023-02-11T09:33:07;3.50;99.90
14349;DHT22;7258;50.376;8.742;2023-02-11T09:35:24;3.50;99.90
14349;DHT22;7258;50.376;8.742;2023-02-11T09:37:27;3.60;99.90
14349;DHT22;7258;50.376;8.742;2023-02-11T09:39:31;3.70;99.90
14349;DHT22;7258;50.376;8.742;2023-02-11T09:41:40;3.80;99.90
14349;DHT22;7258;50.376;8.742;2023-02-11T09:43:46;3.90;99.90
14349;DHT22;7258;50.376;8.742;2023-02-11T09:45:49;3.90;99.90
14349;DHT22;7258;50.376;8.742;2023-02-11T09:47:57;4.00;99.90
14349;DHT22;7258;50.376;8.742;2023-02-11T09:50:03;4.00;99.90
14349;DHT22;7258;50.376;8.742;2023-02-11T09:52:14;4.00;99.90
14349;DHT22;7258;50.376;8.742;2023-02-11T09:54:27;4.00;99.90
14349;DHT22;7258;50.376;8.742;2023-02-11T09:56:32;4.00;99.90
14349;DHT22;7258;50.376;8.742;2023-02-11T09:58:38;4.00;99.90
14349;DHT22;7258;50.376;8.742;2023-02-11T10:00:43;4.00;99.90
14349;DHT22;7258;50.376;8.742;2023-02-11T10:05:24;4.00;99.90
14349;DHT22;7258;50.376;8.742;2023-02-11T10:07:36;4.00;99.90
14349;DHT22;7258;50.376;8.742;2023-02-11T10:09:50;4.00;99.90
14349;DHT22;7258;50.376;8.742;2023-02-11T10:12:08;4.10;99.90
14349;DHT22;7258;50.376;8.742;2023-02-11T10:14:24;4.10;99.90
14349;DHT22;7258;50.376;8.742;2023-02-11T10:16:45;4.20;99.90
14349;DHT22;7258;50.376;8.742;2023-02-11T10:19:07;4.20;99.90
14349;DHT22;7258;50.376;8.742;2023-02-11T10:21:20;4.20;99.90
14349;DHT22;7258;50.376;8.742;2023-02-11T10:23:30;4.30;99.90
14349;DHT22;7258;50.376;8.742;2023-02-11T10:25:37;4.30;99.90
14349;DHT22;7258;50.376;8.742;2023-02-11T10:27:45;4.40;99.90
14349;DHT22;7258;50.376;8.742;2023-02-11T10:29:53;4.40;99.90
14349;DHT22;7258;50.376;8.742;2023-02-11T10:31:59;4.40;99.90
14349;DHT22;7258;50.376;8.742;2023-02-11T10:34:04;4.50;99.90
14349;DHT22;7258;50.376;8.742;2023-02-11T10:36:10;4.50;99.90
14349;DHT22;7258;50.376;8.742;2023-02-11T10:38:14;4.50;99.90
14349;DHT22;7258;50.376;8.742;2023-02-11T10:40:19;4.60;99.90
14349;DHT22;7258;50.376;8.742;2023-02-11T10:42:22;4.60;99.90
14349;DHT22;7258;50.376;8.742;2023-02-11T10:44:31;4.70;99.90
14349;DHT22;7258;50.376;8.742;2023-02-11T10:46:36;4.70;99.90
14349;DHT22;7258;50.376;8.742;2023-02-11T10:48:43;4.70;99.90
14349;DHT22;7258;50.376;8.742;2023-02-11T10:50:47;4.70;99.90
14349;DHT22;7258;50.376;8.742;2023-02-11T10:52:50;4.70;99.90
14349;DHT22;7258;50.376;8.742;2023-02-11T10:55:02;4.80;99.90
14349;DHT22;7258;50.376;8.742;2023-02-11T10:57:06;4.80;99.90
14349;DHT22;7258;50.376;8.742;2023-02-11T10:59:14;4.80;99.90
14349;DHT22;7258;50.376;8.742;2023-02-11T11:01:37;4.80;99.90
14349;DHT22;7258;50.376;8.742;2023-02-11T11:03:46;4.90;99.90
14349;DHT22;7258;50.376;8.742;2023-02-11T11:05:52;4.90;99.90
14349;DHT22;7258;50.376;8.742;2023-02-11T11:08:01;4.90;99.90
14349;DHT22;7258;50.376;8.742;2023-02-11T11:10:10;4.90;99.90
14349;DHT22;7258;50.376;8.742;2023-02-11T11:12:30;5.00;99.90
14349;DHT22;7258;50.376;8.742;2023-02-11T11:14:33;5.10;99.90
14349;DHT22;7258;50.376;8.742;2023-02-11T11:16:54;5.10;99.90
14349;DHT22;7258;50.376;8.742;2023-02-11T11:19:18;5.20;99.90
14349;DHT22;7258;50.376;8.742;2023-02-11T11:21:23;5.20;99.90
14349;DHT22;7258;50.376;8.742;2023-02-11T11:23:30;5.20;99.90
14349;DHT22;7258;50.376;8.742;2023-02-11T11:25:42;5.20;99.90
14349;DHT22;7258;50.376;8.742;2023-02-11T11:27:48;5.20;99.90
14349;DHT22;7258;50.376;8.742;2023-02-11T11:29:54;5.20;99.90
14349;DHT22;7258;50.376;8.742;2023-02-11T11:32:01;5.20;99.90
14349;DHT22;7258;50.376;8.742;2023-02-11T11:34:20;5.20;99.90
14349;DHT22;7258;50.376;8.742;2023-02-11T11:36:33;5.20;99.90
14349;DHT22;7258;50.376;8.742;2023-02-11T11:38:43;5.20;99.90
14349;DHT22;7258;50.376;8.742;2023-02-11T11:41:19;5.30;99.90
14349;DHT22;7258;50.376;8.742;2023-02-11T11:43:23;5.40;99.90
14349;DHT22;7258;50.376;8.742;2023-02-11T11:45:26;5.40;99.90
14349;DHT22;7258;50.376;8.742;2023-02-11T11:47:35;5.40;99.90
14349;DHT22;7258;50.376;8.742;2023-02-11T11:49:44;5.50;99.90
14349;DHT22;7258;50.376;8.742;2023-02-11T11:51:55;5.50;99.90
14349;DHT22;7258;50.376;8.742;2023-02-11T11:54:05;5.50;99.90
14349;DHT22;7258;50.376;8.742;2023-02-11T11:56:13;5.60;99.90
14349;DHT22;7258;50.376;8.742;2023-02-11T11:58:19;5.60;99.90
14349;DHT22;7258;50.376;8.742;2023-02-11T12:00:26;5.60;99.90
14349;DHT22;7258;50.376;8.742;2023-02-11T12:02:59;5.60;99.90
14349;DHT22;7258;50.376;8.742;2023-02-11T12:05:08;5.60;99.90
14349;DHT22;7258;50.376;8.742;2023-02-11T12:07:25;5.50;99.90
14349;DHT22;7258;50.376;8.742;2023-02-11T12:09:40;5.50;99.90
14349;DHT22;7258;50.376;8.742;2023-02-11T12:12:13;5.50;99.90
14349;DHT22;7258;50.376;8.742;2023-02-11T12:14:23;5.50;99.90
14349;DHT22;7258;50.376;8.742;2023-02-11T12:16:35;5.50;99.90
14349;DHT22;7258;50.376;8.742;2023-02-11T12:21:23;5.50;99.90
14349;DHT22;7258;50.376;8.742;2023-02-11T12:23:41;5.50;99.90
14349;DHT22;7258;50.376;8.742;2023-02-11T12:25:54;5.50;99.90
14349;DHT22;7258;50.376;8.742;2023-02-11T12:28:09;5.50;99.90
14349;DHT22;7258;50.376;8.742;2023-02-11T12:30:32;5.50;99.90
14349;DHT22;7258;50.376;8.742;2023-02-11T12:32:41;5.50;99.90
14349;DHT22;7258;50.376;8.742;2023-02-11T12:35:01;5.60;99.90
14349;DHT22;7258;50.376;8.742;2023-02-11T12:37:20;5.70;99.90
14349;DHT22;7258;50.376;8.742;2023-02-11T12:39:36;5.70;99.90
14349;DHT22;7258;50.376;8.742;2023-02-11T12:41:51;5.80;99.90
14349;DHT22;7258;50.376;8.742;2023-02-11T12:44:22;5.90;99.90
14349;DHT22;7258;50.376;8.742;2023-02-11T12:46:33;6.10;99.90
14349;DHT22;7258;50.376;8.742;2023-02-11T12:48:55;6.20;99.90
14349;DHT22;7258;50.376;8.742;2023-02-11T12:51:12;6.30;99.90
14349;DHT22;7258;50.376;8.742;2023-02-11T12:53:33;6.40;99.90
14349;DHT22;7258;50.376;8.742;2023-02-11T12:55:44;6.50;99.90
14349;DHT22;7258;50.376;8.742;2023-02-11T12:57:49;6.70;99.90
14349;DHT22;7258;50.376;8.742;2023-02-11T12:59:58;6.80;99.90
14349;DHT22;7258;50.376;8.742;2023-02-11T13:02:11;7.00;99.90
14349;DHT22;7258;50.376;8.742;2023-02-11T13:04:20;7.10;99.90
14349;DHT22;7258;50.376;8.742;2023-02-11T13:06:32;7.20;99.90
14349;DHT22;7258;50.376;8.742;2023-02-11T13:08:39;7.20;99.90
14349;DHT22;7258;50.376;8.742;2023-02-11T13:10:47;7.20;99.90
14349;DHT22;7258;50.376;8.742;2023-02-11T13:12:52;7.20;99.90
14349;DHT22;7258;50.376;8.742;2023-02-11T13:15:14;7.20;99.90
14349;DHT22;7258;50.376;8.742;2023-02-11T13:17:36;7.10;99.90
14349;DHT22;7258;50.376;8.742;2023-02-11T13:19:46;7.10;99.90
14349;DHT22;7258;50.376;8.742;2023-02-11T13:22:07;7.10;99.90
14349;DHT22;7258;50.376;8.742;2023-02-11T13:24:19;7.20;99.90
14349;DHT22;7258;50.376;8.742;2023-02-11T13:26:28;7.10;99.90
14349;DHT22;7258;50.376;8.742;2023-02-11T13:28:39;7.10;99.90
14349;DHT22;7258;50.376;8.742;2023-02-11T13:30:45;7.00;99.90
14349;DHT22;7258;50.376;8.742;2023-02-11T13:33:19;7.00;99.90
14349;DHT22;7258;50.376;8.742;2023-02-11T13:35:27;7.00;99.90
14349;DHT22;7258;50.376;8.742;2023-02-11T13:37:36;7.10;99.90
14349;DHT22;7258;50.376;8.742;2023-02-11T13:39:39;7.00;99.90
14349;DHT22;7258;50.376;8.742;2023-02-11T13:41:42;7.00;99.90
14349;DHT22;7258;50.376;8.742;2023-02-11T13:44:00;7.10;99.90
14349;DHT22;7258;50.376;8.742;2023-02-11T13:46:05;7.10;99.90
14349;DHT22;7258;50.376;8.742;2023-02-11T13:48:16;7.00;99.90
14349;DHT22;7258;50.376;8.742;2023-02-11T13:50:22;7.00;99.90
14349;DHT22;7258;50.376;8.742;2023-02-11T13:52:28;7.00;99.90
14349;DHT22;7258;50.376;8.742;2023-02-11T13:54:36;6.90;99.90
14349;DHT22;7258;50.376;8.742;2023-02-11T13:56:40;6.90;99.90
14349;DHT22;7258;50.376;8.742;2023-02-11T13:58:48;6.90;99.90